Anastasia Island, Florida
Current Conditions -  °F | °C
As of 6:58 AM on Monday 24 Nov 2014 (Local Time) from KSGJ Reporting Station
Broken Clouds Broken Clouds  
Wind Chill: 72°   Ceiling: 1700
Heat Index: 72°   Visibility: 7mi
Dew Point: 71°   Wind: 8mph
Humidity: 97%   Direction: 200°SSW
Pressure: 29.94"   Gusts: NA
Location:  29.8475°N, 81.2787°W
Report Text: KSGJ 241158Z 20007KT 7SM FEW002 BKN017 22/22 A2994 RMK AO2 SLP138 70008 T02220217 10228 20217 53009
Loading
Personal Weather Stations






























Interactive Weather Map New forecast layout! Learn more

10-Day Weather Forecast

Advertisements
Track Severe Weather on mobile